Time;durP1;ratioP1;P1;durP2;ratioP2;P2;SDS_P1;SDS_P2;PMS_P1;PMS_P2;Temp;Humidity;BMP_temperature;BMP_pressure;BME280_temperature;BME280_humidity;BME280_pressure;Samples;Min_cycle;Max_cycle;Signal;HPM_P1;HPM_P2
2023/08/28 00:01:05;;;;;;;3.77;2.23;;;;;;;18.20;86.16;97103.72;6137526;28;20227;-92
2023/08/28 00:04:08;;;;;;;1.97;1.70;;;;;;;16.94;86.38;96923.81;6153207;28;20235;-92
2023/08/28 00:07:12;;;;;;;3.43;2.00;;;;;;;18.92;86.30;97222.34;6148473;28;20239;-93
2023/08/28 00:10:18;;;;;;;3.60;2.20;;;;;;;17.69;86.73;97050.94;6136038;28;20225;-93
2023/08/28 00:13:21;;;;;;;2.50;2.27;;;;;;;17.87;87.01;97084.22;6154481;28;20240;-92
2023/08/28 00:16:24;;;;;;;2.43;1.93;;;;;;;16.83;87.35;96952.03;6139449;28;20230;-92
2023/08/28 00:19:27;;;;;;;2.03;1.83;;;;;;;18.05;87.58;97108.34;6177437;28;20248;-93
2023/08/28 00:22:29;;;;;;;2.47;2.03;;;;;;;16.40;87.58;96873.50;6162505;28;20239;-93
2023/08/28 00:25:34;;;;;;;2.47;1.73;;;;;;;17.27;87.45;97021.34;6141238;28;20234;-93
2023/08/28 00:28:37;;;;;;;2.30;2.10;;;;;;;17.45;87.62;97030.41;6178927;28;20233;-92
2023/08/28 00:31:39;;;;;;;2.00;1.80;;;;;;;17.48;87.77;97042.47;6157612;28;20344;-93
2023/08/28 00:34:43;;;;;;;2.23;1.93;;;;;;;17.03;88.05;96996.56;6158144;28;20334;-93
2023/08/28 00:37:49;;;;;;;1.83;1.50;;;;;;;17.25;87.57;97033.53;6159463;28;20237;-94
2023/08/28 00:40:52;;;;;;;2.03;1.87;;;;;;;17.09;88.38;96965.75;6167147;28;20229;-93
2023/08/28 00:43:55;;;;;;;2.30;2.10;;;;;;;16.44;88.33;96882.56;6233751;28;20226;-94
2023/08/28 00:47:02;;;;;;;2.80;2.07;;;;;;;17.75;87.80;97076.69;6160346;28;20278;-93
2023/08/28 00:50:06;;;;;;;2.20;2.00;;;;;;;17.66;88.22;97090.03;6144768;28;20241;-94
2023/08/28 00:53:11;;;;;;;2.33;2.13;;;;;;;18.68;88.78;97221.81;6167881;28;20228;-92
2023/08/28 00:56:14;;;;;;;2.90;2.33;;;;;;;16.35;88.84;96873.59;6167821;28;20319;-93
2023/08/28 00:59:17;;;;;;;3.27;1.87;;;;;;;18.64;88.95;97223.53;6164634;28;20240;-94
2023/08/28 01:02:20;;;;;;;3.40;1.83;;;;;;;17.07;89.09;96997.56;6159754;28;20256;-93
2023/08/28 01:05:44;;;;;;;2.67;2.00;;;;;;;17.36;89.13;97043.00;6177290;28;20225;-93
2023/08/28 01:09:16;;;;;;;1.97;1.70;;;;;;;17.62;88.80;97083.66;6159379;28;20245;-93
2023/08/28 01:16:11;;;;;;;4.57;1.80;;;;;;;17.20;88.42;97012.91;6100353;28;20236;-93
2023/08/28 01:19:32;;;;;;;2.90;1.73;;;;;;;16.97;86.88;97016.59;6089867;28;20307;-92
2023/08/28 01:22:41;;;;;;;2.53;1.70;;;;;;;17.70;86.94;97098.31;6098540;28;20297;-93
2023/08/28 01:25:45;;;;;;;2.70;1.87;;;;;;;18.00;87.54;97148.88;6079715;28;20580;-92
2023/08/28 01:28:48;;;;;;;2.33;1.60;;;;;;;17.23;87.39;97049.97;6089617;28;20231;-93
2023/08/28 01:31:50;;;;;;;3.07;1.60;;;;;;;16.46;87.60;96926.09;6078369;28;20235;-95
2023/08/28 01:34:53;;;;;;;2.43;1.47;;;;;;;17.34;87.66;97072.13;6089763;28;20230;-94
2023/08/28 01:38:05;;;;;;;1.90;1.60;;;;;;;18.44;88.70;97220.19;6089096;28;20318;-93
2023/08/28 01:41:10;;;;;;;2.27;1.83;;;;;;;18.41;88.79;97214.59;6106680;28;20231;-94
2023/08/28 01:44:14;;;;;;;1.53;1.43;;;;;;;17.34;88.52;97060.53;6094215;28;20219;-93
2023/08/28 01:47:18;;;;;;;1.60;1.50;;;;;;;16.50;88.49;96948.59;6103149;28;20331;-94
2023/08/28 01:50:22;;;;;;;2.40;1.50;;;;;;;17.47;87.84;97070.50;6091253;28;20240;-94
2023/08/28 01:53:26;;;;;;;1.60;1.50;;;;;;;18.15;88.17;97179.31;6137054;28;20226;-94
2023/08/28 01:56:28;;;;;;;2.00;1.50;;;;;;;16.96;87.70;97025.78;6150855;28;20328;-94
2023/08/28 01:59:31;;;;;;;2.43;1.20;;;;;;;17.79;87.83;97145.03;6172416;28;20225;-94
2023/08/28 02:02:34;;;;;;;2.37;1.50;;;;;;;16.28;87.06;96926.97;6152215;28;20233;-95
2023/08/28 02:05:36;;;;;;;1.67;1.57;;;;;;;16.54;86.68;96983.75;6164916;28;20706;-94
2023/08/28 02:08:39;;;;;;;1.53;1.40;;;;;;;16.67;87.22;97010.66;6178800;28;20233;-94
2023/08/28 02:11:41;;;;;;;2.07;1.50;;;;;;;17.59;88.27;97173.16;6163911;28;20232;-94
2023/08/28 02:14:43;;;;;;;1.70;1.60;;;;;;;17.60;87.94;97173.94;6174848;28;20261;-94
2023/08/28 02:17:46;;;;;;;1.60;1.50;;;;;;;17.33;88.23;97164.75;6143722;28;20566;-94
2023/08/28 02:20:48;;;;;;;2.60;1.90;;;;;;;15.63;88.24;96907.13;6148935;28;20722;-93
2023/08/28 02:23:51;;;;;;;1.97;1.67;;;;;;;17.31;88.04;97156.16;6156734;28;20740;-94
2023/08/28 02:26:58;;;;;;;2.23;1.40;;;;;;;16.85;87.32;97078.97;6156686;28;20225;-94
2023/08/28 02:30:01;;;;;;;1.67;1.30;;;;;;;18.05;87.30;97288.13;6160782;28;20238;-94
2023/08/28 02:33:05;;;;;;;2.03;1.50;;;;;;;16.57;87.78;97066.53;6134008;28;20237;-92
2023/08/28 02:36:07;;;;;;;1.70;1.60;;;;;;;16.32;87.34;97038.19;6173891;28;20320;-95
2023/08/28 02:39:11;;;;;;;1.40;1.30;;;;;;;17.00;86.70;97124.44;6171752;28;20213;-94
2023/08/28 02:42:13;;;;;;;2.00;1.17;;;;;;;15.53;87.69;96898.41;6160992;28;20207;-94
2023/08/28 02:45:16;;;;;;;1.40;1.30;;;;;;;15.84;87.84;96944.38;6160064;28;20213;-94
2023/08/28 02:48:18;;;;;;;3.87;1.10;;;;;;;16.87;87.95;97121.72;6185866;28;20214;-93
2023/08/28 02:51:20;;;;;;;1.47;1.23;;;;;;;16.51;87.63;97049.69;6169405;28;20428;-94
2023/08/28 02:54:23;;;;;;;3.97;1.40;;;;;;;17.35;87.65;97169.84;6177221;28;20229;-94
2023/08/28 02:57:26;;;;;;;3.43;1.23;;;;;;;16.58;87.33;97057.38;6154469;28;20245;-94
2023/08/28 03:00:28;;;;;;;1.03;0.90;;;;;;;17.89;88.35;97262.59;6168903;28;20271;-94
2023/08/28 03:03:33;;;;;;;1.87;1.00;;;;;;;16.83;87.22;97099.97;6184127;28;20240;-94
2023/08/28 03:06:37;;;;;;;1.23;1.13;;;;;;;16.72;87.16;97077.06;6172786;28;20276;-93
2023/08/28 03:09:39;;;;;;;2.67;1.20;;;;;;;16.87;86.84;97121.72;6174729;28;20234;-94
2023/08/28 03:12:42;;;;;;;2.30;1.30;;;;;;;16.33;86.84;97005.63;6169049;28;20229;-94
2023/08/28 03:15:44;;;;;;;0.93;0.90;;;;;;;16.72;86.85;97074.34;6152567;28;20230;-93
2023/08/28 03:18:47;;;;;;;1.37;1.13;;;;;;;16.11;86.58;97008.16;6174617;28;20306;-94
2023/08/28 03:21:49;;;;;;;3.97;1.30;;;;;;;16.47;87.25;97062.91;6157763;28;20225;-93
2023/08/28 03:24:52;;;;;;;1.80;1.13;;;;;;;16.42;87.05;97073.75;6154948;28;20312;-95
2023/08/28 03:27:54;;;;;;;1.27;1.10;;;;;;;16.77;87.16;97095.78;6151474;28;20691;-94
2023/08/28 03:30:58;;;;;;;1.40;1.30;;;;;;;16.54;87.24;97065.22;6117051;28;20226;-93
2023/08/28 03:34:00;;;;;;;2.40;1.10;;;;;;;16.03;87.25;96973.91;6150433;28;20246;-95
2023/08/28 03:37:04;;;;;;;1.83;1.20;;;;;;;16.27;87.67;97003.34;6139437;28;20232;-93
2023/08/28 03:40:07;;;;;;;1.63;0.90;;;;;;;16.99;88.06;97133.63;6157629;28;20230;-93
2023/08/28 03:43:10;;;;;;;1.03;0.93;;;;;;;16.33;87.99;97031.72;6172791;28;20225;-93
2023/08/28 03:46:13;;;;;;;1.10;1.00;;;;;;;15.74;87.98;96930.03;6156889;28;20236;-93
2023/08/28 03:49:15;;;;;;;1.60;0.87;;;;;;;16.58;87.78;97019.72;6148974;28;20244;-93
2023/08/28 03:52:18;;;;;;;2.13;1.10;;;;;;;16.59;88.07;97040.94;6176314;28;20289;-95
2023/08/28 03:55:20;;;;;;;1.43;1.10;;;;;;;16.61;87.95;97073.72;6197872;28;20290;-93
2023/08/28 03:58:23;;;;;;;1.27;1.03;;;;;;;17.33;88.37;97180.88;6263982;28;20744;-93
2023/08/28 04:01:26;;;;;;;2.57;1.00;;;;;;;15.80;89.04;96970.22;6181781;28;20226;-93
2023/08/28 04:04:28;;;;;;;1.93;0.80;;;;;;;16.64;88.92;97126.09;6195487;28;20247;-93
2023/08/28 04:07:31;;;;;;;1.07;0.97;;;;;;;16.36;88.43;97095.66;6222267;28;20226;-93
2023/08/28 04:10:35;;;;;;;1.30;1.20;;;;;;;16.61;88.34;97092.53;6263708;28;20285;-93
2023/08/28 04:13:37;;;;;;;1.60;1.20;;;;;;;16.50;88.22;97080.34;6249174;28;20241;-93
2023/08/28 04:16:40;;;;;;;1.87;1.10;;;;;;;16.20;88.07;97022.50;6253094;28;20234;-95
2023/08/28 04:19:43;;;;;;;1.37;0.70;;;;;;;16.74;88.57;97123.25;6192979;28;20226;-93
2023/08/28 04:22:45;;;;;;;2.87;0.90;;;;;;;16.21;89.38;97038.34;6249178;28;20253;-93
2023/08/28 04:25:48;;;;;;;2.23;1.00;;;;;;;15.60;88.72;96939.09;6280902;28;20226;-93
2023/08/28 04:28:50;;;;;;;1.67;1.00;;;;;;;15.01;88.96;96858.09;6233009;28;20262;-94
2023/08/28 04:31:53;;;;;;;1.50;1.00;;;;;;;15.60;88.01;96949.81;6249894;28;20229;-92
2023/08/28 04:34:55;;;;;;;1.47;1.20;;;;;;;16.68;88.65;97084.06;6265210;28;20221;-93
2023/08/28 04:37:58;;;;;;;1.30;0.97;;;;;;;15.85;87.90;96952.13;6248044;28;20465;-94
2023/08/28 04:41:01;;;;;;;1.27;1.00;;;;;;;15.77;88.19;96936.72;6232276;28;20228;-94
2023/08/28 04:44:03;;;;;;;1.10;0.90;;;;;;;14.22;87.47;96677.47;6265349;28;20745;-95
2023/08/28 04:47:06;;;;;;;1.47;1.10;;;;;;;15.47;87.55;96889.63;6232531;28;20221;-93
2023/08/28 04:50:09;;;;;;;1.17;1.03;;;;;;;15.96;87.71;96950.09;6224671;28;20233;-94
2023/08/28 04:53:11;;;;;;;0.97;0.80;;;;;;;15.38;88.45;96886.81;6248315;28;20734;-94
2023/08/28 04:56:13;;;;;;;1.57;1.00;;;;;;;16.45;88.59;97054.34;6231579;28;20651;-93
2023/08/28 04:59:16;;;;;;;1.13;1.00;;;;;;;16.87;89.18;97127.88;6247822;28;20225;-93
2023/08/28 05:02:19;;;;;;;2.30;1.20;;;;;;;15.35;88.48;96875.84;6231124;28;20229;-94
2023/08/28 05:05:21;;;;;;;1.13;0.63;;;;;;;15.81;88.21;96937.72;6265098;28;20607;-94
2023/08/28 05:08:25;;;;;;;1.20;0.90;;;;;;;16.03;87.94;96958.56;6271809;28;20224;-93
2023/08/28 05:11:27;;;;;;;1.90;0.90;;;;;;;15.85;87.58;96933.34;6272475;28;20231;-93
2023/08/28 05:14:29;;;;;;;2.17;0.77;;;;;;;15.47;87.32;96903.06;6256005;28;20231;-92
2023/08/28 05:17:32;;;;;;;3.57;1.00;;;;;;;16.25;86.69;97020.56;6250512;28;20229;-92
2023/08/28 05:20:34;;;;;;;1.93;0.83;;;;;;;16.41;87.41;97047.19;6195530;28;20609;-92
2023/08/28 05:23:38;;;;;;;1.83;1.00;;;;;;;15.47;86.08;96892.31;6180234;28;20229;-92
2023/08/28 05:26:41;;;;;;;2.27;1.07;;;;;;;15.99;86.91;97005.91;6165651;28;20233;-92
2023/08/28 05:29:46;;;;;;;1.23;0.80;;;;;;;15.56;86.65;96917.38;6251217;28;20228;-92
2023/08/28 05:32:48;;;;;;;2.20;1.00;;;;;;;15.17;85.48;96813.06;6204535;28;20233;-96
2023/08/28 05:36:00;;;;;;;0.87;0.70;;;;;;;17.15;86.52;97123.34;6252744;22;20225;-56
2023/08/28 05:39:03;;;;;;;1.13;1.00;;;;;;;17.16;86.59;97124.16;6328598;27;20228;-57
2023/08/28 05:42:07;;;;;;;0.90;0.60;;;;;;;17.17;87.00;97117.66;6326229;28;20217;-56
2023/08/28 05:45:11;;;;;;;2.47;0.90;;;;;;;17.19;86.94;97123.53;6312997;28;20209;-57
2023/08/28 05:48:13;;;;;;;1.53;0.80;;;;;;;17.19;86.29;97124.38;6329906;28;20208;-57
2023/08/28 05:51:15;;;;;;;1.60;1.00;;;;;;;17.22;86.03;97133.72;6294192;28;20205;-55
2023/08/28 05:54:18;;;;;;;1.00;0.80;;;;;;;17.20;85.96;97133.25;6316770;28;20205;-57
2023/08/28 05:57:23;;;;;;;1.87;1.07;;;;;;;17.22;86.19;97133.72;6332511;28;20868;-56
2023/08/28 06:00:26;;;;;;;1.10;0.90;;;;;;;17.23;85.56;97136.09;6320403;28;20280;-57
2023/08/28 06:03:28;;;;;;;1.00;0.80;;;;;;;17.22;86.24;97147.97;6329075;28;20754;-55
2023/08/28 06:06:30;;;;;;;1.10;1.00;;;;;;;17.31;84.60;97131.16;6325150;28;20229;-57
2023/08/28 06:09:33;;;;;;;1.87;1.07;;;;;;;17.27;85.40;97144.41;6330410;28;20259;-56
2023/08/28 06:12:35;;;;;;;4.00;1.10;;;;;;;17.45;84.66;97140.81;6307410;28;20225;-57
2023/08/28 06:15:38;;;;;;;2.40;0.80;;;;;;;17.31;84.97;97141.91;6327772;28;20235;-56
2023/08/28 06:18:40;;;;;;;1.30;0.93;;;;;;;17.46;83.57;97145.09;6330126;28;20713;-57
2023/08/28 06:21:44;;;;;;;1.07;0.90;;;;;;;17.40;84.64;97142.81;6326556;28;20261;-54
2023/08/28 06:24:52;;;;;;;1.43;1.00;;;;;;;17.33;84.79;97143.19;6326482;28;20328;-57
2023/08/28 06:27:55;;;;;;;1.07;0.90;;;;;;;17.36;84.75;97139.91;6307226;28;20237;-56
2023/08/28 06:30:57;;;;;;;1.60;0.93;;;;;;;17.39;84.60;97141.19;6328177;28;20325;-57
2023/08/28 06:34:00;;;;;;;2.03;1.00;;;;;;;17.39;85.02;97146.59;6311610;28;20285;-56
2023/08/28 06:37:02;;;;;;;1.10;1.00;;;;;;;17.39;84.46;97144.72;6328050;28;20366;-57
2023/08/28 06:40:08;;;;;;;1.40;1.07;;;;;;;17.37;84.97;97138.81;6329077;28;20256;-56
2023/08/28 06:43:11;;;;;;;1.77;1.10;;;;;;;17.43;84.01;97134.91;6327434;28;20217;-57
2023/08/28 06:46:13;;;;;;;1.60;1.00;;;;;;;17.38;84.59;97124.25;6328820;28;20225;-56
2023/08/28 06:49:15;;;;;;;1.30;1.20;;;;;;;17.35;85.38;97113.31;6329173;28;20237;-55
2023/08/28 06:52:17;;;;;;;1.63;1.10;;;;;;;17.40;84.80;97108.63;6328706;28;20225;-56
2023/08/28 06:55:20;;;;;;;1.47;1.20;;;;;;;17.37;84.79;97097.63;6328423;28;20320;-54
2023/08/28 06:58:22;;;;;;;1.77;1.40;;;;;;;17.18;84.76;97052.75;6328155;28;20237;-57
2023/08/28 07:01:24;;;;;;;1.37;1.07;;;;;;;17.43;84.69;97074.88;6328094;28;20266;-56
2023/08/28 07:04:27;;;;;;;3.23;1.50;;;;;;;17.44;84.75;97081.88;6327650;28;20233;-54
2023/08/28 07:07:29;;;;;;;1.77;1.30;;;;;;;17.37;84.60;97068.03;6320317;28;20235;-55
2023/08/28 07:10:31;;;;;;;1.23;1.10;;;;;;;17.42;85.20;97070.59;6324949;28;20374;-56
2023/08/28 07:13:34;;;;;;;1.10;1.00;;;;;;;17.42;84.89;97059.84;6326279;28;20236;-55
2023/08/28 07:16:36;;;;;;;2.73;1.20;;;;;;;17.42;85.44;97076.00;6322907;28;20229;-56
2023/08/28 07:19:38;;;;;;;1.67;1.33;;;;;;;17.47;85.30;97078.56;6328164;28;20233;-56
2023/08/28 07:22:40;;;;;;;1.50;1.10;;;;;;;17.48;85.52;97074.78;6308675;28;20237;-57
2023/08/28 07:25:44;;;;;;;2.33;1.07;;;;;;;17.51;86.10;97076.88;6329453;28;20236;-54
2023/08/28 07:28:48;;;;;;;1.30;1.17;;;;;;;17.56;85.56;97086.75;6326804;28;20241;-56
2023/08/28 07:31:51;;;;;;;1.30;1.20;;;;;;;17.57;84.74;97088.34;6323422;28;20320;-55
2023/08/28 07:34:55;;;;;;;1.20;1.10;;;;;;;17.56;84.73;97090.25;6326577;28;20726;-55
2023/08/28 07:37:57;;;;;;;3.20;1.37;;;;;;;17.59;85.35;97088.84;6333557;28;20233;-57
2023/08/28 07:41:00;;;;;;;1.43;1.33;;;;;;;17.60;84.55;97085.84;6330215;28;20917;-56
2023/08/28 07:44:02;;;;;;;1.83;1.40;;;;;;;17.73;83.83;97073.47;6333359;28;20705;-55
2023/08/28 07:47:05;;;;;;;3.57;1.57;;;;;;;17.70;84.32;97052.50;6331310;28;20225;-55
2023/08/28 07:50:08;;;;;;;1.20;1.10;;;;;;;17.85;83.05;97044.13;6327646;28;20366;-56
2023/08/28 07:53:11;;;;;;;2.37;1.33;;;;;;;17.81;83.02;97007.31;6325088;28;20229;-56
2023/08/28 07:56:13;;;;;;;1.80;1.50;;;;;;;18.04;82.90;97025.88;6327270;28;20908;-57
2023/08/28 07:59:15;;;;;;;2.43;1.43;;;;;;;18.05;82.04;97022.09;6325920;28;20232;-55
2023/08/28 08:02:18;;;;;;;3.57;1.30;;;;;;;18.08;81.92;97027.97;6322489;28;20229;-57
2023/08/28 08:05:20;;;;;;;1.93;1.40;;;;;;;18.15;81.37;97020.25;6328454;28;20231;-57
2023/08/28 08:08:23;;;;;;;1.30;1.20;;;;;;;18.18;81.45;97011.56;6327747;28;20229;-57
2023/08/28 08:11:25;;;;;;;1.67;1.57;;;;;;;18.33;80.11;97013.09;6325603;28;20232;-55
2023/08/28 08:14:27;;;;;;;3.77;1.90;;;;;;;18.44;78.95;97022.50;6326562;28;20240;-57
2023/08/28 08:17:29;;;;;;;2.33;1.80;;;;;;;18.47;78.92;97019.16;6327192;28;20237;-57
2023/08/28 08:20:31;;;;;;;4.03;1.70;;;;;;;18.54;77.10;97011.44;6327094;28;20274;-56
2023/08/28 08:23:34;;;;;;;1.80;1.70;;;;;;;18.45;78.29;97007.91;6324492;28;20224;-54
2023/08/28 08:26:36;;;;;;;2.87;1.77;;;;;;;18.46;78.63;97012.19;6327176;28;20221;-56
2023/08/28 08:29:38;;;;;;;3.10;1.60;;;;;;;18.59;77.43;97014.00;6327407;28;20301;-57
2023/08/28 08:32:42;;;;;;;1.93;1.53;;;;;;;18.53;78.03;96999.88;6326881;28;20225;-57
2023/08/28 08:35:45;;;;;;;2.57;1.60;;;;;;;18.52;77.64;97003.69;6324008;28;20315;-57
2023/08/28 08:38:47;;;;;;;2.67;1.87;;;;;;;18.65;77.04;96996.59;6327530;28;20323;-56
2023/08/28 08:41:49;;;;;;;2.87;2.10;;;;;;;18.55;77.67;96988.75;6331920;28;20312;-56
2023/08/28 08:44:52;;;;;;;2.80;1.90;;;;;;;18.58;79.11;96974.66;6327632;28;20212;-57
2023/08/28 08:47:58;;;;;;;2.17;1.97;;;;;;;18.73;76.52;96965.41;6326406;28;20221;-56
2023/08/28 08:51:06;;;;;;;4.07;2.27;;;;;;;18.77;77.10;96960.97;6323365;28;20743;-54
2023/08/28 08:54:21;;;;;;;4.43;2.17;;;;;;;18.74;78.04;96959.69;6325813;28;20904;-57
2023/08/28 08:57:39;;;;;;;2.20;2.00;;;;;;;18.77;78.05;96967.16;6332366;28;20702;-55
2023/08/28 09:00:45;;;;;;;2.10;1.90;;;;;;;18.89;76.95;96979.25;6326846;28;20233;-56
2023/08/28 09:03:48;;;;;;;2.63;2.00;;;;;;;18.80;76.03;96979.22;6330563;28;20301;-57
2023/08/28 09:06:51;;;;;;;2.33;2.00;;;;;;;18.48;77.22;96942.56;6329578;28;20240;-56
2023/08/28 09:09:54;;;;;;;4.07;2.10;;;;;;;18.62;78.53;96967.53;6332589;28;20672;-57
2023/08/28 09:12:57;;;;;;;3.03;2.10;;;;;;;18.65;77.61;96966.13;6331073;28;20244;-55
2023/08/28 09:15:59;;;;;;;2.77;2.07;;;;;;;18.65;77.51;96968.81;6328296;28;20228;-57
2023/08/28 09:19:02;;;;;;;2.50;1.80;;;;;;;18.69;78.30;96975.22;6331291;28;20289;-56
2023/08/28 09:22:04;;;;;;;2.63;2.07;;;;;;;18.68;76.67;96979.81;6327696;28;20221;-56
2023/08/28 09:25:07;;;;;;;2.30;2.10;;;;;;;18.43;78.09;96964.28;6330285;28;20315;-54
2023/08/28 09:28:12;;;;;;;2.33;1.90;;;;;;;18.55;78.08;96980.66;6336209;28;20221;-56
2023/08/28 09:31:26;;;;;;;4.03;1.87;;;;;;;18.60;78.75;96977.03;6330500;28;20710;-57
2023/08/28 09:34:38;;;;;;;2.47;2.17;;;;;;;18.60;78.02;96972.44;6331236;28;20221;-56
2023/08/28 09:37:40;;;;;;;3.30;2.27;;;;;;;18.65;77.79;96953.41;6328850;28;20608;-57
2023/08/28 09:40:42;;;;;;;2.10;1.90;;;;;;;18.61;78.00;96949.75;6330730;28;20600;-56
2023/08/28 09:43:45;;;;;;;2.80;2.00;;;;;;;18.66;78.48;96952.31;6331141;28;20306;-57
2023/08/28 09:46:49;;;;;;;2.77;2.33;;;;;;;18.72;78.36;96955.72;6330951;28;20232;-56
2023/08/28 09:49:51;;;;;;;2.83;2.07;;;;;;;18.73;78.36;96952.69;6328514;28;20217;-57
2023/08/28 09:52:53;;;;;;;2.73;2.10;;;;;;;18.75;77.02;96950.47;6330777;28;20634;-58
2023/08/28 09:55:57;;;;;;;2.60;2.40;;;;;;;18.73;77.68;96955.38;6330180;28;20683;-55
2023/08/28 09:59:01;;;;;;;3.97;2.30;;;;;;;18.73;76.85;96957.28;6329950;28;20693;-56
2023/08/28 10:02:04;;;;;;;2.33;2.13;;;;;;;18.71;77.51;96951.41;6311555;28;20217;-57
2023/08/28 10:05:23;;;;;;;3.20;2.80;;;;;;;18.76;76.76;96953.97;6328191;28;20230;-56
2023/08/28 10:08:31;;;;;;;3.40;2.80;;;;;;;18.79;77.21;96958.75;6331186;28;20225;-55
2023/08/28 10:11:39;;;;;;;3.10;2.80;;;;;;;18.86;76.21;96948.28;6325711;28;20229;-57
2023/08/28 10:14:41;;;;;;;3.13;2.83;;;;;;;18.86;76.45;96934.00;6321256;28;20231;-56
2023/08/28 10:17:45;;;;;;;4.57;3.13;;;;;;;18.92;75.40;96914.66;6329419;28;20760;-55
2023/08/28 10:20:48;;;;;;;4.80;2.97;;;;;;;19.06;75.87;96904.53;6330765;28;20235;-57
2023/08/28 10:23:51;;;;;;;3.53;2.77;;;;;;;19.20;74.48;96890.06;6330349;28;20234;-56
2023/08/28 10:26:55;;;;;;;3.70;3.40;;;;;;;19.19;74.00;96886.56;6328835;28;20343;-56
2023/08/28 10:29:59;;;;;;;3.50;2.90;;;;;;;19.20;75.10;96880.06;6329502;28;20282;-57
2023/08/28 10:33:03;;;;;;;4.33;3.17;;;;;;;19.26;74.88;96889.59;6328343;28;20612;-56
2023/08/28 10:36:10;;;;;;;4.03;3.17;;;;;;;19.33;74.05;96887.22;6329311;28;20617;-57
2023/08/28 10:39:33;;;;;;;4.80;3.23;;;;;;;19.41;74.26;96887.53;6328472;28;20839;-55
2023/08/28 10:42:36;;;;;;;3.90;2.93;;;;;;;19.40;73.50;96869.72;6328929;28;20233;-57
2023/08/28 10:45:40;;;;;;;5.00;2.80;;;;;;;19.44;74.14;96857.19;6310832;28;20244;-56
2023/08/28 10:48:45;;;;;;;8.37;3.37;;;;;;;19.47;73.44;96873.56;6329167;28;20366;-54
2023/08/28 10:51:47;;;;;;;3.73;3.33;;;;;;;19.41;74.48;96874.00;6328356;28;20648;-55
2023/08/28 10:54:50;;;;;;;3.73;3.43;;;;;;;19.44;74.75;96876.88;6325163;28;20290;-56
2023/08/28 10:57:52;;;;;;;4.77;3.43;;;;;;;19.44;73.78;96876.09;6328398;28;20233;-57
2023/08/28 11:01:14;;;;;;;4.13;3.70;;;;;;;19.33;74.24;96875.63;6328445;28;20236;-57
2023/08/28 11:04:17;;;;;;;6.50;3.77;;;;;;;19.34;75.21;96856.38;6328156;28;20229;-57
2023/08/28 11:07:25;;;;;;;5.60;3.20;;;;;;;19.38;74.24;96840.34;6326642;28;20306;-57
2023/08/28 11:10:27;;;;;;;3.73;3.40;;;;;;;19.32;73.92;96804.63;6326053;28;20240;-57
2023/08/28 11:13:30;;;;;;;4.80;3.43;;;;;;;19.42;73.89;96813.50;6328093;28;20233;-57
2023/08/28 11:16:32;;;;;;;4.73;3.40;;;;;;;19.46;73.59;96795.53;6327175;28;20233;-54
2023/08/28 11:19:59;;;;;;;3.50;3.20;;;;;;;19.53;72.64;96803.94;6328145;28;20324;-56
2023/08/28 11:23:01;;;;;;;4.27;3.77;;;;;;;19.54;72.52;96795.50;6320720;28;20278;-56
2023/08/28 11:26:26;;;;;;;5.23;4.00;;;;;;;19.63;73.00;96795.53;6332188;28;20236;-53
2023/08/28 11:29:30;;;;;;;4.97;4.20;;;;;;;19.74;72.92;96785.94;6324540;28;20237;-57
2023/08/28 11:32:38;;;;;;;6.13;4.50;;;;;;;19.75;72.35;96768.63;6328824;28;20225;-57
2023/08/28 11:35:40;;;;;;;5.70;4.07;;;;;;;19.78;72.15;96767.19;6326916;28;20233;-57
2023/08/28 11:38:43;;;;;;;4.03;3.70;;;;;;;19.86;72.63;96760.16;6324166;28;20317;-57
2023/08/28 11:41:46;;;;;;;8.20;4.20;;;;;;;19.96;71.92;96754.41;6327922;28;20225;-57
2023/08/28 11:44:49;;;;;;;4.60;3.97;;;;;;;20.01;72.47;96756.94;6327749;28;20410;-57
2023/08/28 11:47:51;;;;;;;3.97;3.57;;;;;;;20.13;72.08;96751.59;6328079;28;20317;-57
2023/08/28 11:51:01;;;;;;;5.03;3.63;;;;;;;20.10;72.01;96744.16;6327648;28;20386;-57
2023/08/28 11:54:03;;;;;;;5.20;3.60;;;;;;;20.14;70.98;96736.97;6324010;28;20298;-56
2023/08/28 11:57:06;;;;;;;3.50;3.20;;;;;;;20.18;71.27;96729.78;6326755;28;20209;-57
2023/08/28 12:00:11;;;;;;;4.30;3.67;;;;;;;20.34;70.04;96735.41;6327705;28;20446;-56
2023/08/28 12:03:20;;;;;;;3.53;3.23;;;;;;;20.21;70.32;96704.00;6327084;28;20262;-57
2023/08/28 12:06:22;;;;;;;5.43;3.43;;;;;;;20.35;71.10;96728.91;6323642;28;20621;-56
2023/08/28 12:09:24;;;;;;;3.97;3.50;;;;;;;20.61;71.55;96729.53;6326913;28;20221;-56
2023/08/28 12:12:27;;;;;;;4.87;3.60;;;;;;;20.82;70.87;96734.16;6330751;28;20241;-55
2023/08/28 12:15:31;;;;;;;3.67;3.10;;;;;;;20.74;69.81;96743.94;6330546;28;20280;-57
2023/08/28 12:18:52;;;;;;;4.03;3.63;;;;;;;20.72;70.41;96742.66;6326814;28;20882;-56
2023/08/28 12:22:07;;;;;;;5.50;3.43;;;;;;;20.85;69.73;96730.78;6321382;28;21055;-56
2023/08/28 12:25:09;;;;;;;7.30;3.97;;;;;;;20.90;68.22;96717.03;6320185;28;20259;-57
2023/08/28 12:28:11;;;;;;;5.20;3.53;;;;;;;20.87;67.65;96706.88;6326962;28;20257;-56
2023/08/28 12:31:15;;;;;;;3.97;3.30;;;;;;;20.78;69.42;96716.97;6326332;28;20319;-56
2023/08/28 12:34:18;;;;;;;5.23;3.53;;;;;;;20.84;68.79;96721.09;6322920;28;20694;-56
2023/08/28 12:37:20;;;;;;;4.27;3.27;;;;;;;20.99;68.74;96698.81;6326643;28;20264;-57
2023/08/28 12:40:22;;;;;;;4.17;3.30;;;;;;;21.28;67.41;96700.59;6326091;28;20229;-54
2023/08/28 12:43:25;;;;;;;4.10;3.20;;;;;;;21.40;67.67;96704.47;6327488;28;20315;-57
2023/08/28 12:46:27;;;;;;;3.70;3.40;;;;;;;21.41;66.29;96695.22;6327019;28;20233;-57
2023/08/28 12:49:29;;;;;;;4.00;3.27;;;;;;;21.49;67.19;96707.88;6327691;28;20378;-57
2023/08/28 12:52:31;;;;;;;3.90;3.27;;;;;;;21.55;67.12;96690.28;6325874;28;20239;-57
2023/08/28 12:55:34;;;;;;;4.67;2.53;;;;;;;21.50;66.62;96688.56;6326425;28;20225;-57
2023/08/28 12:58:36;;;;;;;5.90;3.50;;;;;;;21.60;66.22;96700.91;6326772;28;20229;-64
2023/08/28 13:01:39;;;;;;;3.77;3.23;;;;;;;21.60;66.83;96695.47;6327165;28;20240;-55
2023/08/28 13:04:42;;;;;;;8.20;4.00;;;;;;;21.79;65.56;96700.34;6317877;28;20228;-55
2023/08/28 13:07:45;;;;;;;4.50;3.20;;;;;;;21.77;66.04;96689.84;6326877;28;20232;-55
2023/08/28 13:10:47;;;;;;;3.27;2.93;;;;;;;21.79;66.39;96687.59;6326789;28;20232;-53
2023/08/28 13:13:49;;;;;;;3.87;2.87;;;;;;;21.80;66.59;96702.72;6325622;28;20306;-54
2023/08/28 13:16:52;;;;;;;5.17;3.33;;;;;;;22.08;67.01;96731.88;6325998;28;20221;-54
2023/08/28 13:19:54;;;;;;;4.47;3.20;;;;;;;22.25;67.00;96718.09;6326380;28;20225;-54
2023/08/28 13:22:57;;;;;;;3.80;3.17;;;;;;;22.24;65.74;96710.31;6326508;28;20217;-55
2023/08/28 13:25:59;;;;;;;3.40;2.90;;;;;;;22.26;65.72;96713.47;6326089;28;20321;-54
2023/08/28 13:29:02;;;;;;;5.03;3.00;;;;;;;21.93;65.30;96654.72;6325897;28;20225;-54
2023/08/28 13:32:05;;;;;;;3.43;3.10;;;;;;;22.40;65.77;96722.03;6325910;28;20312;-56
2023/08/28 13:35:08;;;;;;;3.57;3.10;;;;;;;22.25;65.75;96722.75;6324336;28;20233;-53
2023/08/28 13:38:11;;;;;;;3.70;2.90;;;;;;;22.09;66.25;96720.69;6326582;28;20240;-54
2023/08/28 13:41:13;;;;;;;4.33;3.10;;;;;;;21.99;66.93;96704.09;6325752;28;20232;-53
2023/08/28 13:44:15;;;;;;;5.00;3.30;;;;;;;21.88;67.03;96707.25;6326109;28;20221;-55
2023/08/28 13:47:17;;;;;;;6.07;3.03;;;;;;;21.84;67.24;96694.72;6328268;28;20220;-55
2023/08/28 13:50:20;;;;;;;4.20;3.20;;;;;;;21.80;66.55;96681.03;6321093;28;20249;-55
2023/08/28 13:53:25;;;;;;;4.23;3.00;;;;;;;21.68;68.09;96685.66;6334454;28;20217;-55
2023/08/28 13:56:28;;;;;;;5.00;3.20;;;;;;;21.44;68.41;96667.47;6329380;28;20234;-55
2023/08/28 13:59:30;;;;;;;4.67;3.03;;;;;;;21.45;68.33;96679.88;6307485;28;20278;-54
2023/08/28 14:02:32;;;;;;;5.50;2.93;;;;;;;21.44;68.83;96667.47;6330635;28;20224;-54
2023/08/28 14:05:34;;;;;;;3.47;2.67;;;;;;;21.54;69.01;96675.94;6328762;28;20236;-54
2023/08/28 14:08:37;;;;;;;3.77;2.90;;;;;;;21.66;69.13;96669.72;6328028;28;20217;-54
2023/08/28 14:11:39;;;;;;;8.73;3.20;;;;;;;21.64;68.11;96663.88;6330039;28;20310;-55
2023/08/28 14:14:41;;;;;;;3.87;2.40;;;;;;;21.51;68.75;96663.06;6328389;28;20220;-54
2023/08/28 14:17:44;;;;;;;3.33;2.53;;;;;;;21.51;69.51;96673.09;6329325;28;20233;-53
2023/08/28 14:20:53;;;;;;;5.37;2.57;;;;;;;21.56;69.82;96670.16;6329042;28;20229;-53
2023/08/28 14:23:56;;;;;;;3.40;2.87;;;;;;;21.60;69.40;96660.25;6329177;28;20217;-54
2023/08/28 14:26:58;;;;;;;3.03;2.60;;;;;;;21.61;69.72;96664.53;6329419;28;20221;-55
2023/08/28 14:30:01;;;;;;;3.37;2.70;;;;;;;21.54;70.22;96673.22;6328415;28;20241;-55